createdAt,value
2023-01-23T00:01:36.301Z,3.99
2023-01-23T00:04:05.199Z,3.97
2023-01-23T00:06:32.947Z,3.63
2023-01-23T00:09:01.576Z,3.76
2023-01-23T00:11:30.715Z,3.78
2023-01-23T00:14:00.559Z,3.72
2023-01-23T00:16:32.603Z,3.81
2023-01-23T00:19:01.157Z,3.87
2023-01-23T00:21:30.227Z,3.91
2023-01-23T00:23:59.210Z,3.82
2023-01-23T00:26:28.829Z,3.85
2023-01-23T00:28:57.199Z,3.77
2023-01-23T00:31:32.515Z,3.75
2023-01-23T00:34:07.635Z,3.81
2023-01-23T00:36:38.950Z,3.69
2023-01-23T00:39:20.686Z,3.65
2023-01-23T00:41:50.198Z,3.71
2023-01-23T00:44:18.734Z,3.70
2023-01-23T00:46:47.522Z,3.67
2023-01-23T00:49:17.827Z,3.56
2023-01-23T00:51:46.501Z,3.76
2023-01-23T00:54:14.422Z,3.89
2023-01-23T00:56:42.433Z,3.82
2023-01-23T00:59:10.369Z,3.76
2023-01-23T01:01:38.233Z,3.88
2023-01-23T01:04:06.199Z,3.81
2023-01-23T01:06:34.153Z,3.88
2023-01-23T01:09:02.353Z,3.88
2023-01-23T01:11:30.034Z,3.55
2023-01-23T01:14:01.494Z,3.79
2023-01-23T01:16:29.805Z,3.81
2023-01-23T01:18:59.477Z,3.97
2023-01-23T01:21:27.082Z,3.83
2023-01-23T01:23:54.625Z,3.99
2023-01-23T01:26:23.130Z,3.84
2023-01-23T01:28:51.374Z,3.61
2023-01-23T01:31:19.340Z,3.58
2023-01-23T01:33:48.167Z,3.73
2023-01-23T01:36:19.871Z,3.90
2023-01-23T01:38:48.487Z,3.92
2023-01-23T01:41:17.289Z,3.96
2023-01-23T01:43:45.999Z,4.07
2023-01-23T01:46:24.216Z,4.08
2023-01-23T01:49:07.159Z,4.05
2023-01-23T01:52:03.506Z,4.07
2023-01-23T01:54:50.230Z,4.14
2023-01-23T01:57:26.462Z,3.86
2023-01-23T02:00:01.986Z,3.81
2023-01-23T02:02:37.495Z,3.99
2023-01-23T02:05:16.039Z,3.73
2023-01-23T02:08:14.710Z,3.58
2023-01-23T02:10:48.629Z,3.59
2023-01-23T02:13:32.240Z,3.58
2023-01-23T02:16:06.831Z,3.73
2023-01-23T02:18:38.468Z,3.88
2023-01-23T02:21:08.482Z,3.89
2023-01-23T02:23:44.875Z,3.90
2023-01-23T02:26:27.958Z,3.77
2023-01-23T02:28:56.168Z,3.79
2023-01-23T02:31:28.121Z,4.04
2023-01-23T02:33:58.858Z,3.93
2023-01-23T02:36:32.416Z,3.98
2023-01-23T02:39:17.503Z,3.98
2023-01-23T02:41:51.397Z,4.08
2023-01-23T02:44:29.327Z,4.16
2023-01-23T02:47:02.574Z,4.20
2023-01-23T02:49:31.056Z,4.22
2023-01-23T02:51:58.856Z,4.31
2023-01-23T02:54:26.881Z,4.33
2023-01-23T02:56:54.723Z,4.30
2023-01-23T02:59:42.357Z,4.20
2023-01-23T03:02:10.811Z,4.30
2023-01-23T03:04:38.566Z,4.27
2023-01-23T03:07:06.428Z,4.30
2023-01-23T03:09:34.189Z,4.04
2023-01-23T03:12:02.762Z,4.12
2023-01-23T03:14:32.353Z,4.26
2023-01-23T03:17:00.421Z,4.18
2023-01-23T03:19:32.919Z,4.19
2023-01-23T03:22:00.550Z,4.27
2023-01-23T03:24:28.151Z,4.32
2023-01-23T03:26:55.727Z,4.25
2023-01-23T03:29:49.780Z,4.18
2023-01-23T03:32:18.083Z,4.26
2023-01-23T03:34:45.856Z,4.34
2023-01-23T03:37:15.224Z,4.18
2023-01-23T03:40:04.881Z,4.28
2023-01-23T03:42:35.238Z,4.29
2023-01-23T03:45:05.598Z,3.95
2023-01-23T03:47:36.449Z,4.05
2023-01-23T03:50:04.805Z,4.20
2023-01-23T03:52:38.081Z,4.06
2023-01-23T03:55:11.517Z,3.98
2023-01-23T03:57:40.487Z,3.84
2023-01-23T04:00:25.106Z,4.03
2023-01-23T04:03:05.803Z,4.26
2023-01-23T04:05:33.921Z,4.23
2023-01-23T04:08:02.433Z,4.26
2023-01-23T04:10:30.968Z,4.36
2023-01-23T04:13:05.216Z,4.41
2023-01-23T04:15:39.636Z,4.15
2023-01-23T04:18:08.073Z,4.31
2023-01-23T04:20:35.753Z,4.53
2023-01-23T04:23:03.614Z,4.45
2023-01-23T04:25:31.367Z,4.41
2023-01-23T04:27:59.060Z,4.12
2023-01-23T04:30:26.919Z,4.07
2023-01-23T04:32:55.407Z,4.11
2023-01-23T04:35:23.769Z,3.94
2023-01-23T04:38:26.415Z,4.13
2023-01-23T04:41:03.772Z,4.12
2023-01-23T04:43:35.885Z,4.31
2023-01-23T04:46:09.859Z,4.27
2023-01-23T04:49:00.183Z,4.30
2023-01-23T04:51:28.810Z,4.01
2023-01-23T04:53:56.850Z,4.31
2023-01-23T04:56:24.522Z,4.38
2023-01-23T04:58:53.308Z,4.51
2023-01-23T05:01:24.065Z,4.57
2023-01-23T05:03:57.778Z,4.58
2023-01-23T05:06:25.767Z,4.64
2023-01-23T05:08:56.387Z,4.62
2023-01-23T05:11:38.797Z,4.62
2023-01-23T05:14:06.954Z,4.56
2023-01-23T05:16:35.041Z,4.60
2023-01-23T05:19:18.405Z,4.39
2023-01-23T05:21:47.587Z,4.52
2023-01-23T05:24:19.138Z,4.51
2023-01-23T05:26:46.749Z,4.46
2023-01-23T05:29:15.005Z,4.48
2023-01-23T05:31:52.675Z,4.30
2023-01-23T05:34:39.371Z,4.38
2023-01-23T05:37:25.312Z,4.39
2023-01-23T05:39:56.078Z,4.42
2023-01-23T05:42:24.520Z,4.32
2023-01-23T05:44:52.495Z,4.30
2023-01-23T05:47:36.677Z,4.30
2023-01-23T05:50:16.181Z,4.14
2023-01-23T05:52:46.844Z,4.29
2023-01-23T05:55:14.917Z,4.20
2023-01-23T05:57:46.716Z,4.17
2023-01-23T06:00:47.689Z,4.07
2023-01-23T06:03:34.490Z,4.02
2023-01-23T06:06:16.222Z,4.15
2023-01-23T06:08:44.138Z,4.29
2023-01-23T06:11:11.804Z,4.36
2023-01-23T06:13:39.558Z,4.42
2023-01-23T06:16:10.543Z,4.31
2023-01-23T06:18:38.981Z,4.45
2023-01-23T06:21:06.720Z,4.33
2023-01-23T06:23:36.607Z,4.16
2023-01-23T06:26:04.462Z,4.20
2023-01-23T06:28:33.905Z,4.24
2023-01-23T06:31:07.614Z,4.31
2023-01-23T06:33:44.367Z,4.31
2023-01-23T06:36:13.525Z,4.26
2023-01-23T06:38:41.175Z,4.22
2023-01-23T06:41:11.634Z,4.26
2023-01-23T06:43:42.859Z,4.26
2023-01-23T06:46:17.319Z,4.38
2023-01-23T06:48:45.629Z,4.24
2023-01-23T06:51:13.436Z,4.25
2023-01-23T06:53:44.099Z,4.25
2023-01-23T06:56:13.188Z,4.22
2023-01-23T06:58:44.013Z,4.21
2023-01-23T07:01:19.396Z,4.25
2023-01-23T07:04:22.832Z,4.24
2023-01-23T07:06:52.233Z,4.34
2023-01-23T07:09:21.166Z,4.35
2023-01-23T07:11:57.754Z,4.38
2023-01-23T07:14:27.244Z,4.28
2023-01-23T07:16:55.666Z,4.38
2023-01-23T07:19:23.273Z,4.29
2023-01-23T07:21:51.021Z,4.33
2023-01-23T07:24:18.617Z,4.26
2023-01-23T07:26:48.040Z,4.34
2023-01-23T07:29:15.984Z,4.36
2023-01-23T07:31:43.988Z,4.41
2023-01-23T07:34:12.191Z,4.25
2023-01-23T07:36:39.895Z,4.29
2023-01-23T07:39:07.837Z,4.25
2023-01-23T07:41:35.815Z,4.30
2023-01-23T07:44:08.424Z,4.26
2023-01-23T07:46:36.085Z,4.30
2023-01-23T07:49:03.849Z,4.34
2023-01-23T07:51:31.490Z,4.32
2023-01-23T07:53:59.079Z,4.32
2023-01-23T07:56:27.092Z,4.30
2023-01-23T07:58:57.425Z,4.39
2023-01-23T08:01:25.353Z,4.48
2023-01-23T08:03:54.132Z,4.56
2023-01-23T08:06:21.889Z,4.39
2023-01-23T08:08:50.308Z,4.51
2023-01-23T08:11:18.069Z,4.54
2023-01-23T08:13:50.624Z,4.53
2023-01-23T08:16:18.569Z,4.62
2023-01-23T08:18:46.400Z,4.68
2023-01-23T08:21:14.058Z,4.72
2023-01-23T08:23:42.206Z,4.76
2023-01-23T08:26:18.271Z,4.90
2023-01-23T08:28:46.598Z,4.82
2023-01-23T08:31:14.584Z,4.89
2023-01-23T08:33:42.654Z,4.98
2023-01-23T08:36:13.356Z,4.90
2023-01-23T08:38:41.631Z,4.93
2023-01-23T08:41:11.756Z,4.88
2023-01-23T08:43:41.511Z,4.68
2023-01-23T08:46:10.747Z,4.74
2023-01-23T08:48:38.831Z,4.81
2023-01-23T08:51:12.516Z,4.90
2023-01-23T08:53:40.943Z,4.89
2023-01-23T08:56:16.807Z,5.03
2023-01-23T08:58:45.671Z,4.97
2023-01-23T09:01:16.670Z,5.10
2023-01-23T09:03:44.783Z,5.13
2023-01-23T09:06:14.044Z,5.29
2023-01-23T09:08:42.159Z,5.16
2023-01-23T09:11:11.573Z,5.09
2023-01-23T09:13:40.027Z,5.24
2023-01-23T09:16:08.759Z,5.40
2023-01-23T09:18:37.050Z,4.88
2023-01-23T09:21:15.823Z,4.62
2023-01-23T09:23:44.024Z,5.10
2023-01-23T09:26:14.376Z,5.28
2023-01-23T09:28:43.461Z,4.88
2023-01-23T09:31:23.415Z,5.12
2023-01-23T09:33:54.847Z,5.13
2023-01-23T09:36:37.494Z,4.55
2023-01-23T09:39:05.463Z,4.88
2023-01-23T09:41:33.078Z,4.46
2023-01-23T09:44:09.264Z,3.84
2023-01-23T09:46:49.913Z,4.46
2023-01-23T09:49:45.828Z,4.72
2023-01-23T09:52:28.996Z,4.94
2023-01-23T09:55:04.935Z,4.56
2023-01-23T09:57:56.392Z,5.07
2023-01-23T10:00:31.723Z,4.61
2023-01-23T10:03:04.249Z,5.36
2023-01-23T10:06:12.833Z,5.56
2023-01-23T10:08:50.281Z,5.55
2023-01-23T10:11:32.479Z,5.51
2023-01-23T10:14:28.107Z,5.70
2023-01-23T10:17:01.607Z,5.66
2023-01-23T10:19:38.187Z,5.97
2023-01-23T10:22:38.336Z,6.46
2023-01-23T10:25:27.045Z,6.47
2023-01-23T10:28:16.501Z,6.49
2023-01-23T10:30:50.232Z,6.57
2023-01-23T10:33:19.412Z,6.17
2023-01-23T10:36:03.278Z,5.83
2023-01-23T10:38:57.140Z,6.08
2023-01-23T10:41:24.784Z,6.11
2023-01-23T10:43:55.019Z,6.59
2023-01-23T10:46:35.827Z,6.53
2023-01-23T10:49:03.884Z,6.33
2023-01-23T10:51:47.799Z,6.27
2023-01-23T10:54:32.939Z,6.16
2023-01-23T10:57:18.863Z,6.09
2023-01-23T11:00:36.507Z,6.43
2023-01-23T11:03:22.583Z,6.14
2023-01-23T11:06:08.160Z,6.48
2023-01-23T11:08:58.645Z,6.51
2023-01-23T11:11:30.539Z,6.48
2023-01-23T11:14:15.270Z,6.72
2023-01-23T11:16:43.939Z,6.87
2023-01-23T11:19:20.872Z,6.49
2023-01-23T11:21:55.873Z,6.89
2023-01-23T11:24:40.770Z,6.97
2023-01-23T11:27:26.549Z,7.00
2023-01-23T11:30:30.100Z,6.77
2023-01-23T11:33:03.934Z,6.81
2023-01-23T11:36:00.551Z,6.48
2023-01-23T11:38:37.719Z,6.80
2023-01-23T11:41:13.623Z,7.04
2023-01-23T11:43:42.410Z,6.86
2023-01-23T11:46:43.806Z,6.77
2023-01-23T11:49:49.734Z,6.81
2023-01-23T11:52:48.051Z,7.03
2023-01-23T11:56:05.849Z,7.22
2023-01-23T11:58:51.766Z,7.19
2023-01-23T12:01:21.184Z,7.40
2023-01-23T12:04:07.356Z,7.44
2023-01-23T12:07:12.695Z,7.38
2023-01-23T12:10:56.911Z,7.22
2023-01-23T12:13:57.488Z,7.36
2023-01-23T12:16:40.401Z,7.46
2023-01-23T12:19:33.598Z,7.56
2023-01-23T12:22:28.580Z,7.36
2023-01-23T12:25:23.480Z,7.71
2023-01-23T12:28:19.752Z,7.63
2023-01-23T12:31:21.011Z,7.95
2023-01-23T12:34:22.012Z,7.87
2023-01-23T12:37:30.789Z,8.12
2023-01-23T12:40:39.538Z,8.01
2023-01-23T12:43:18.429Z,8.43
2023-01-23T12:45:54.096Z,8.90
2023-01-23T12:48:43.525Z,9.23
2023-01-23T12:51:24.630Z,9.23
2023-01-23T12:53:57.463Z,9.48
2023-01-23T12:56:33.865Z,10.18
2023-01-23T12:59:28.719Z,10.37
2023-01-23T13:02:37.387Z,10.48
2023-01-23T13:05:31.727Z,9.83
2023-01-23T13:08:35.988Z,10.48
2023-01-23T13:11:50.463Z,9.94
2023-01-23T13:14:34.712Z,10.07
2023-01-23T13:18:02.744Z,10.16
2023-01-23T13:21:13.484Z,9.58
2023-01-23T13:23:41.355Z,9.42
2023-01-23T13:26:23.179Z,9.51
2023-01-23T13:29:02.239Z,9.56
2023-01-23T13:31:41.616Z,9.47
2023-01-23T13:34:18.712Z,9.43
2023-01-23T13:36:51.899Z,9.11
2023-01-23T13:39:29.696Z,9.08
2023-01-23T13:42:31.041Z,9.35
2023-01-23T13:45:16.859Z,9.63
2023-01-23T14:21:52.436Z,7.44
2023-01-23T14:24:31.159Z,7.73
2023-01-23T14:27:09.446Z,7.27
2023-01-23T14:29:37.108Z,7.40
2023-01-23T14:32:05.150Z,7.37
2023-01-23T14:34:40.132Z,7.37
2023-01-23T14:37:13.827Z,7.27
2023-01-23T14:39:53.123Z,7.02
2023-01-23T14:42:27.550Z,7.28
2023-01-23T14:44:59.633Z,7.09
2023-01-23T14:47:45.444Z,7.24
2023-01-23T14:50:23.178Z,7.20
2023-01-23T14:53:15.391Z,7.38
2023-01-23T14:55:48.353Z,6.79
2023-01-23T14:58:25.986Z,7.05
2023-01-23T15:00:55.036Z,7.12
2023-01-23T15:03:43.889Z,7.28
2023-01-23T15:06:22.767Z,7.32
2023-01-23T15:08:51.281Z,7.24
2023-01-23T15:11:27.530Z,7.26
2023-01-23T15:14:01.507Z,7.14
2023-01-23T15:16:38.102Z,7.03
2023-01-23T15:19:19.298Z,7.10
2023-01-23T15:21:47.693Z,7.04
2023-01-23T15:24:15.410Z,6.98
2023-01-23T15:27:05.407Z,6.98
2023-01-23T15:29:34.359Z,7.12
2023-01-23T15:32:02.680Z,6.53
2023-01-23T15:34:34.040Z,6.75
2023-01-23T15:37:17.240Z,6.21
2023-01-23T15:40:02.530Z,6.33
2023-01-23T15:42:35.346Z,6.40
2023-01-23T15:45:18.646Z,6.30
2023-01-23T15:47:46.763Z,6.36
2023-01-23T15:50:14.856Z,6.44
2023-01-23T15:52:50.460Z,6.42
2023-01-23T15:55:20.148Z,6.66
2023-01-23T15:57:48.329Z,6.70
2023-01-23T16:00:18.567Z,6.61
2023-01-23T16:02:56.211Z,5.99
2023-01-23T16:05:37.134Z,6.08
2023-01-23T16:08:16.269Z,6.31
2023-01-23T16:10:44.648Z,6.43
2023-01-23T16:13:14.818Z,6.58
2023-01-23T16:15:43.169Z,6.52
2023-01-23T16:18:16.856Z,6.70
2023-01-23T16:20:46.705Z,6.68
2023-01-23T16:23:22.242Z,6.58
2023-01-23T16:25:51.531Z,6.54
2023-01-23T16:28:23.954Z,6.56
2023-01-23T16:30:52.633Z,6.53
2023-01-23T16:33:21.700Z,6.58
2023-01-23T16:35:52.471Z,6.48
2023-01-23T16:38:29.354Z,6.55
2023-01-23T16:41:01.583Z,6.50
2023-01-23T16:43:29.681Z,6.54
2023-01-23T16:45:57.678Z,6.49
2023-01-23T16:48:28.003Z,6.44
2023-01-23T16:51:28.065Z,6.57
2023-01-23T16:54:03.893Z,6.66
2023-01-23T16:56:40.626Z,6.50
2023-01-23T16:59:19.124Z,6.43
2023-01-23T17:01:50.087Z,6.56
2023-01-23T17:04:21.293Z,6.56
2023-01-23T17:06:50.755Z,6.58
2023-01-23T17:09:19.688Z,6.66
2023-01-23T17:11:52.794Z,6.53
2023-01-23T17:14:32.491Z,6.43
2023-01-23T17:17:10.932Z,6.54
2023-01-23T17:19:41.894Z,6.51
2023-01-23T17:22:34.948Z,6.34
2023-01-23T17:25:03.687Z,6.39
2023-01-23T17:27:41.728Z,6.31
2023-01-23T17:30:21.702Z,6.42
2023-01-23T17:32:58.032Z,6.45
2023-01-23T17:35:34.617Z,6.45
2023-01-23T17:38:03.497Z,6.47
2023-01-23T17:40:31.864Z,6.51
2023-01-23T17:42:59.517Z,6.43
2023-01-23T17:45:27.896Z,6.47
2023-01-23T17:47:56.435Z,6.40
2023-01-23T17:50:26.307Z,6.48
2023-01-23T17:52:55.254Z,6.24
2023-01-23T17:55:28.252Z,6.45
2023-01-23T17:57:56.014Z,6.50
2023-01-23T18:00:24.680Z,6.46
2023-01-23T18:02:58.693Z,6.15
2023-01-23T18:05:27.373Z,6.42
2023-01-23T18:07:55.795Z,6.44
2023-01-23T18:10:29.105Z,6.57
2023-01-23T18:13:39.756Z,6.55
2023-01-23T18:16:31.170Z,6.70
2023-01-23T18:19:07.452Z,6.64
2023-01-23T18:21:35.485Z,6.61
2023-01-23T18:24:03.892Z,6.39
2023-01-23T18:26:40.310Z,6.34
2023-01-23T18:29:20.386Z,6.49
2023-01-23T18:31:53.739Z,6.47
2023-01-23T18:34:52.606Z,6.12
2023-01-23T18:37:42.702Z,6.33
2023-01-23T18:40:38.595Z,6.14
2023-01-23T18:43:21.069Z,6.22
2023-01-23T18:45:49.361Z,6.05
2023-01-23T18:48:25.099Z,6.18
2023-01-23T18:51:08.430Z,6.20
2023-01-23T18:54:08.749Z,6.30
2023-01-23T18:57:01.265Z,6.40
2023-01-23T19:00:16.902Z,6.56
2023-01-23T19:02:46.925Z,6.41
2023-01-23T19:05:15.949Z,6.23
2023-01-23T19:07:45.861Z,6.35
2023-01-23T19:10:23.079Z,6.41
2023-01-23T19:13:29.679Z,6.15
2023-01-23T19:16:30.304Z,6.30
2023-01-23T19:19:26.200Z,6.23
2023-01-23T19:21:56.420Z,6.41
2023-01-23T19:24:24.711Z,6.42
2023-01-23T19:26:54.239Z,6.29
2023-01-23T19:29:23.262Z,6.42
2023-01-23T19:32:07.107Z,6.19
2023-01-23T19:34:35.711Z,5.95
2023-01-23T19:37:04.073Z,5.88
2023-01-23T19:39:31.920Z,6.20
2023-01-23T19:42:00.669Z,6.29
2023-01-23T19:44:31.551Z,6.34
2023-01-23T19:46:59.970Z,6.10
2023-01-23T19:49:27.678Z,6.33
2023-01-23T19:51:55.494Z,6.37
2023-01-23T19:54:24.409Z,6.31
2023-01-23T19:56:54.659Z,6.55
2023-01-23T19:59:22.828Z,6.47
2023-01-23T20:01:55.542Z,6.28
2023-01-23T20:04:24.229Z,5.98
2023-01-23T20:06:52.477Z,5.74
2023-01-23T20:09:20.984Z,5.68
2023-01-23T20:11:49.781Z,5.64
2023-01-23T20:14:18.517Z,5.80
2023-01-23T20:16:46.339Z,5.97
2023-01-23T20:19:16.444Z,6.12
2023-01-23T20:21:45.124Z,5.84
2023-01-23T20:24:14.517Z,6.09
2023-01-23T20:26:42.542Z,5.76
2023-01-23T20:29:12.059Z,6.12
2023-01-23T20:31:39.835Z,6.19
2023-01-23T20:34:10.363Z,5.70
2023-01-23T20:36:38.197Z,6.09
2023-01-23T20:39:05.983Z,6.12
2023-01-23T20:41:34.520Z,6.27
2023-01-23T20:44:04.873Z,6.31
2023-01-23T20:46:32.616Z,6.42
2023-01-23T20:49:01.663Z,5.88
2023-01-23T20:51:30.289Z,6.29
2023-01-23T20:53:57.979Z,6.13
2023-01-23T20:56:28.479Z,6.51
2023-01-23T20:59:16.243Z,6.41
2023-01-23T21:02:04.957Z,6.13
2023-01-23T21:04:39.220Z,6.19
2023-01-23T21:07:06.883Z,5.95
2023-01-23T21:09:34.642Z,6.08
2023-01-23T21:12:02.275Z,5.34
2023-01-23T21:14:30.270Z,5.84
2023-01-23T21:16:58.427Z,5.75
2023-01-23T21:19:26.597Z,5.30
2023-01-23T21:21:54.410Z,5.60
2023-01-23T21:24:22.258Z,5.98
2023-01-23T21:26:50.257Z,6.19
2023-01-23T21:29:18.283Z,6.14
2023-01-23T21:31:46.050Z,6.21
2023-01-23T21:34:14.947Z,6.33
2023-01-23T21:36:43.795Z,6.50
2023-01-23T21:39:14.462Z,6.39
2023-01-23T21:41:42.502Z,5.95
2023-01-23T21:44:11.640Z,5.96
2023-01-23T21:46:39.509Z,5.99
2023-01-23T21:49:07.412Z,6.16
2023-01-23T21:51:35.500Z,5.99
2023-01-23T21:54:03.835Z,6.19
2023-01-23T21:56:31.866Z,5.69
2023-01-23T21:58:59.584Z,5.62
2023-01-23T22:01:35.925Z,5.75
2023-01-23T22:04:11.116Z,5.56
2023-01-23T22:06:42.638Z,5.78
2023-01-23T22:09:15.476Z,6.06
2023-01-23T22:11:44.535Z,5.62
2023-01-23T22:14:12.409Z,5.86
2023-01-23T22:16:48.369Z,5.99
2023-01-23T22:19:24.606Z,5.90
2023-01-23T22:21:54.940Z,6.09
2023-01-23T22:24:22.821Z,6.26
2023-01-23T22:26:51.041Z,6.09
2023-01-23T22:29:18.825Z,6.32
2023-01-23T22:31:46.557Z,6.48
2023-01-23T22:34:14.429Z,6.52
2023-01-23T22:36:42.179Z,6.34
2023-01-23T22:39:11.857Z,6.07
2023-01-23T22:41:39.394Z,5.98
2023-01-23T22:44:06.927Z,5.95
2023-01-23T22:46:34.587Z,6.14
2023-01-23T22:49:02.313Z,6.21
2023-01-23T22:51:30.212Z,6.09
2023-01-23T22:53:59.129Z,5.99
2023-01-23T22:56:28.363Z,5.50
2023-01-23T22:58:57.626Z,5.15
2023-01-23T23:01:27.259Z,5.46
2023-01-23T23:03:58.388Z,5.70
2023-01-23T23:06:26.959Z,5.55
2023-01-23T23:08:55.154Z,5.68
2023-01-23T23:11:26.420Z,5.71
2023-01-23T23:13:56.268Z,5.19
2023-01-23T23:16:31.045Z,5.49
2023-01-23T23:19:02.275Z,5.64
2023-01-23T23:21:35.542Z,5.75
2023-01-23T23:24:09.036Z,5.96
2023-01-23T23:26:37.236Z,5.62
2023-01-23T23:29:05.722Z,5.75
2023-01-23T23:31:33.805Z,5.57
2023-01-23T23:34:02.042Z,5.64
2023-01-23T23:36:29.942Z,5.75
2023-01-23T23:38:57.699Z,5.98
2023-01-23T23:41:25.653Z,5.88
2023-01-23T23:43:53.429Z,6.04
2023-01-23T23:46:21.157Z,6.16
2023-01-23T23:48:48.860Z,5.98
2023-01-23T23:51:19.073Z,6.29
2023-01-23T23:53:46.978Z,6.30
2023-01-23T23:56:22.578Z,6.17
2023-01-23T23:58:50.668Z,5.98
